Time;durP1;ratioP1;P1;durP2;ratioP2;P2;SDS_P1;SDS_P2;PMS_P1;PMS_P2;Temp;Humidity;BMP_temperature;BMP_pressure;BME280_temperature;BME280_humidity;BME280_pressure;Samples;Min_cycle;Max_cycle;Signal;HPM_P1;HPM_P2
2022/07/22 00:00:00;;;;;;;0.40;0.40;;;22.30;69.60;;;22.78;56.10;95363.06;5010646;28;20218;-79
2022/07/22 00:02:27;;;;;;;0.30;0.30;;;22.30;69.70;;;22.75;56.38;95362.75;5014109;28;20306;-79
2022/07/22 00:04:54;;;;;;;0.30;0.30;;;22.30;70.20;;;22.72;56.57;95369.44;5024507;28;20291;-79
2022/07/22 00:07:21;;;;;;;0.40;0.40;;;22.30;70.20;;;22.67;56.10;95364.06;4981691;28;20689;-79
2022/07/22 00:09:49;;;;;;;0.40;0.40;;;22.30;70.20;;;22.62;56.33;95354.13;4999969;28;20214;-78
2022/07/22 00:12:16;;;;;;;0.50;0.50;;;22.20;70.20;;;22.61;56.43;95360.53;5012393;28;20217;-79
2022/07/22 00:14:43;;;;;;;0.40;0.40;;;22.20;70.30;;;22.58;56.43;95357.56;5013864;28;20197;-79
2022/07/22 00:17:11;;;;;;;0.50;0.50;;;22.20;70.30;;;22.57;56.42;95359.44;5013735;28;20220;-78
2022/07/22 00:19:38;;;;;;;0.40;0.40;;;22.10;71.30;;;22.60;56.26;95364.28;5029641;28;20210;-79
2022/07/22 00:22:05;;;;;;;0.50;0.50;;;22.10;70.20;;;22.62;55.78;95364.81;5029134;28;20242;-78
2022/07/22 00:24:32;;;;;;;0.30;0.30;;;22.10;70.30;;;22.64;55.93;95362.72;5024255;28;20649;-79
2022/07/22 00:26:59;;;;;;;0.40;0.40;;;22.10;70.40;;;22.67;56.13;95359.50;5017214;28;20212;-79
2022/07/22 00:29:27;;;;;;;0.40;0.40;;;22.10;70.50;;;22.70;56.18;95360.84;5012792;28;20209;-79
2022/07/22 00:31:54;;;;;;;0.30;0.30;;;22.10;70.60;;;22.74;55.92;95358.47;5007329;28;20215;-79
2022/07/22 00:34:21;;;;;;;0.40;0.40;;;22.10;70.80;;;22.76;56.15;95351.00;5016655;28;20246;-78
2022/07/22 00:36:48;;;;;;;0.40;0.40;;;22.10;70.80;;;22.76;56.15;95359.03;5030107;28;20231;-79
2022/07/22 00:39:16;;;;;;;0.50;0.50;;;22.10;70.70;;;22.73;56.13;95360.34;5000906;28;20751;-77
2022/07/22 00:41:43;;;;;;;0.40;0.40;;;22.20;70.70;;;22.69;56.71;95353.91;4995913;28;20231;-77
2022/07/22 00:44:12;;;;;;;0.45;0.45;;;22.10;70.70;;;22.63;56.39;95349.56;5003099;28;20207;-78
2022/07/22 00:46:39;;;;;;;0.50;0.50;;;22.10;70.80;;;22.58;56.99;95353.00;4995216;28;20239;-77
2022/07/22 00:49:08;;;;;;;0.50;0.50;;;22.10;70.90;;;22.54;57.96;95347.41;5012088;28;20673;-79
2022/07/22 00:51:39;;;;;;;0.40;0.40;;;22.10;71.30;;;22.51;57.37;95345.22;4987600;28;20221;-78
2022/07/22 00:54:07;;;;;;;0.30;0.30;;;22.10;71.30;;;22.49;57.45;95338.53;4989434;28;20235;-77
2022/07/22 00:56:36;;;;;;;0.40;0.40;;;22.00;71.50;;;22.47;58.66;95337.97;4996859;28;20249;-77
2022/07/22 00:59:08;;;;;;;0.40;0.40;;;22.00;71.90;;;22.44;58.51;95339.31;5001121;28;20561;-77
2022/07/22 01:01:36;;;;;;;0.40;0.40;;;22.00;72.00;;;22.43;57.93;95336.91;4997191;28;20236;-78
2022/07/22 01:04:05;;;;;;;0.50;0.50;;;21.90;71.80;;;22.38;58.21;95333.09;4993384;28;20290;-79
2022/07/22 01:06:32;;;;;;;0.40;0.40;;;22.00;72.20;;;22.34;59.44;95339.22;4995123;28;20227;-79
2022/07/22 01:09:00;;;;;;;0.32;0.32;;;22.00;72.30;;;22.33;58.65;95334.91;5015284;28;20199;-79
2022/07/22 01:11:27;;;;;;;0.50;0.50;;;21.90;72.20;;;22.26;59.00;95331.66;5016144;28;20771;-78
2022/07/22 01:13:56;;;;;;;0.50;0.50;;;21.90;72.40;;;22.34;58.86;95342.69;5012297;28;20214;-78
2022/07/22 01:16:25;;;;;;;0.47;0.47;;;21.90;72.60;;;22.35;58.80;95336.28;5032485;28;20226;-79
2022/07/22 01:18:52;;;;;;;0.38;0.38;;;21.90;72.40;;;22.36;59.21;95343.22;5011299;28;20220;-79
2022/07/22 01:21:20;;;;;;;0.40;0.40;;;22.00;72.70;;;22.39;58.98;95339.28;4998269;28;20255;-78
2022/07/22 01:23:48;;;;;;;0.40;0.40;;;21.90;72.70;;;22.37;59.49;95339.50;5015770;28;20756;-79
2022/07/22 01:26:17;;;;;;;0.50;0.50;;;21.90;72.90;;;22.33;59.68;95340.25;5010353;28;20310;-78
2022/07/22 01:28:44;;;;;;;0.50;0.50;;;21.90;72.90;;;22.28;60.27;95338.34;4996364;28;20749;-78
2022/07/22 01:31:12;;;;;;;0.43;0.43;;;21.90;73.30;;;22.25;60.08;95338.84;5000307;28;20308;-78
2022/07/22 01:33:40;;;;;;;0.40;0.40;;;21.90;73.20;;;22.19;60.14;95330.00;5029033;28;20220;-79
2022/07/22 01:36:08;;;;;;;0.30;0.30;;;21.90;73.50;;;22.20;60.39;95328.94;5015399;28;20226;-79
2022/07/22 01:38:35;;;;;;;0.40;0.40;;;21.90;73.50;;;22.19;60.34;95329.19;4987041;28;20208;-79
2022/07/22 01:41:03;;;;;;;0.40;0.40;;;21.80;73.50;;;22.15;60.98;95328.09;5026452;28;20231;-78
2022/07/22 01:43:32;;;;;;;0.40;0.40;;;21.80;73.80;;;22.13;60.70;95327.53;5017419;28;20650;-79
2022/07/22 01:46:00;;;;;;;0.32;0.32;;;21.80;73.70;;;22.11;60.43;95325.13;5015894;28;20446;-79
2022/07/22 01:48:30;;;;;;;0.35;0.35;;;21.80;73.70;;;22.11;60.43;95332.34;5030667;28;20264;-78
2022/07/22 01:50:58;;;;;;;0.40;0.40;;;21.80;73.70;;;22.11;60.55;95325.13;5017832;28;20264;-78
2022/07/22 01:53:26;;;;;;;0.45;0.45;;;21.80;74.00;;;22.09;60.75;95318.44;5012010;28;20297;-78
2022/07/22 01:55:53;;;;;;;0.30;0.30;;;21.80;74.00;;;22.10;61.18;95325.38;4999183;28;20279;-78
2022/07/22 01:58:20;;;;;;;0.50;0.50;;;21.70;74.30;;;22.09;61.38;95315.75;5010434;28;20578;-79
2022/07/22 02:00:48;;;;;;;0.38;0.38;;;21.70;74.40;;;22.07;60.56;95314.13;5019723;28;20317;-78
2022/07/22 02:03:15;;;;;;;0.40;0.40;;;21.80;74.20;;;22.06;61.63;95315.19;5030245;28;20188;-79
2022/07/22 02:05:43;;;;;;;0.40;0.40;;;21.70;74.40;;;22.05;60.49;95302.09;5010878;28;20319;-79
2022/07/22 02:08:22;;;;;;;0.50;0.50;;;21.70;74.40;;;22.02;60.70;95295.41;5000053;28;20205;-79
2022/07/22 02:11:07;;;;;;;0.40;0.40;;;21.70;74.50;;;22.02;60.87;95308.75;5031167;28;20222;-78
2022/07/22 02:13:43;;;;;;;0.40;0.40;;;21.70;74.40;;;22.02;61.37;95305.28;5031057;28;20262;-79
2022/07/22 02:16:10;;;;;;;0.50;0.50;;;21.70;74.60;;;22.01;61.11;95304.47;4998073;28;20585;-77
2022/07/22 02:18:46;;;;;;;0.32;0.32;;;21.60;74.60;;;22.01;60.86;95298.34;5012151;28;20701;-79
2022/07/22 02:21:13;;;;;;;0.40;0.40;;;21.70;74.40;;;22.00;61.40;95304.75;5010069;28;20234;-78
2022/07/22 02:23:40;;;;;;;0.40;0.40;;;21.60;74.50;;;21.98;61.33;95299.63;5017220;28;20208;-79
2022/07/22 02:26:09;;;;;;;0.40;0.40;;;21.70;74.70;;;21.97;61.54;95298.03;4998619;28;20302;-78
2022/07/22 02:28:36;;;;;;;0.30;0.30;;;21.60;74.70;;;21.95;61.90;95294.00;5015150;28;20245;-77
2022/07/22 02:31:04;;;;;;;0.40;0.40;;;21.60;74.80;;;21.95;61.71;95292.13;5014302;28;20278;-79
2022/07/22 02:33:32;;;;;;;0.40;0.40;;;21.60;74.90;;;21.93;62.33;95299.59;5012195;28;20229;-78
2022/07/22 02:36:00;;;;;;;0.50;0.50;;;21.60;75.00;;;21.92;62.17;95300.66;5029410;28;20319;-79
2022/07/22 02:38:30;;;;;;;0.50;0.50;;;21.60;75.10;;;21.84;62.65;95296.59;5012919;28;20213;-79
2022/07/22 02:40:57;;;;;;;0.38;0.38;;;21.60;75.30;;;21.90;62.42;95303.59;5031354;28;20326;-79
2022/07/22 02:43:24;;;;;;;0.40;0.40;;;21.60;75.50;;;21.87;62.68;95290.75;5010585;28;20305;-79
2022/07/22 02:45:53;;;;;;;0.50;0.50;;;21.60;75.50;;;21.89;62.41;95301.16;4995143;28;20251;-78
2022/07/22 02:48:21;;;;;;;0.30;0.30;;;21.60;75.30;;;21.90;62.00;95295.56;5008548;28;20210;-78
2022/07/22 02:50:48;;;;;;;0.40;0.40;;;21.50;75.30;;;21.88;62.55;95295.00;5026581;28;20224;-78
2022/07/22 02:53:22;;;;;;;0.30;0.30;;;21.60;75.30;;;21.87;63.14;95300.59;5008188;28;20614;-78
2022/07/22 02:55:49;;;;;;;0.40;0.40;;;21.60;75.60;;;21.87;62.44;95295.28;5006898;28;20284;-79
2022/07/22 02:58:17;;;;;;;0.40;0.40;;;21.60;75.60;;;21.86;63.70;95293.66;5007236;28;20692;-78
2022/07/22 03:00:45;;;;;;;0.40;0.40;;;21.60;76.10;;;21.87;63.57;95295.28;5013238;28;20240;-78
2022/07/22 03:03:13;;;;;;;0.40;0.40;;;21.60;76.00;;;21.87;63.50;95304.09;5009649;28;20736;-79
2022/07/22 03:05:41;;;;;;;0.30;0.30;;;21.60;76.20;;;21.88;64.22;95296.88;5006158;28;20228;-79
2022/07/22 03:08:34;;;;;;;0.30;0.30;;;21.60;76.20;;;21.88;63.68;95292.34;4992775;28;20501;-78
2022/07/22 03:11:01;;;;;;;0.50;0.50;;;21.60;76.00;;;21.89;63.71;95304.63;5001917;28;20225;-78
2022/07/22 03:13:28;;;;;;;0.40;0.40;;;21.60;76.20;;;21.87;63.39;95300.59;5020411;28;20240;-79
2022/07/22 03:15:56;;;;;;;0.40;0.40;;;21.60;76.10;;;21.82;63.46;95293.34;5016365;28;20221;-78
2022/07/22 03:18:23;;;;;;;0.40;0.40;;;21.60;76.10;;;21.78;63.46;95292.25;5014426;28;20191;-79
2022/07/22 03:20:50;;;;;;;0.40;0.40;;;21.60;76.10;;;21.83;63.32;95299.50;5002058;28;20245;-78
2022/07/22 03:23:17;;;;;;;0.40;0.40;;;21.60;76.10;;;21.80;63.65;95292.00;5015702;28;20306;-79
2022/07/22 03:25:45;;;;;;;0.40;0.40;;;21.60;76.10;;;21.80;63.74;95300.84;5010627;28;20687;-79
2022/07/22 03:28:12;;;;;;;0.40;0.40;;;21.60;76.30;;;21.73;63.55;95290.34;5023110;28;20196;-79
2022/07/22 03:30:39;;;;;;;0.40;0.40;;;21.50;76.20;;;21.77;63.94;95300.53;4994783;28;20229;-78
2022/07/22 03:33:07;;;;;;;0.40;0.40;;;21.50;76.20;;;21.73;63.97;95305.56;5013096;28;20210;-78
2022/07/22 03:35:39;;;;;;;0.40;0.40;;;21.50;76.30;;;21.75;63.86;95303.44;5001182;28;20224;-78
2022/07/22 03:38:06;;;;;;;0.30;0.30;;;21.50;76.30;;;21.75;63.63;95317.59;4999487;28;20219;-78
2022/07/22 03:40:35;;;;;;;0.40;0.40;;;21.50;76.20;;;21.73;63.23;95303.69;5014188;28;20235;-78
2022/07/22 03:43:05;;;;;;;0.40;0.40;;;21.50;76.10;;;21.73;62.95;95300.22;4997342;28;20230;-78
2022/07/22 03:45:32;;;;;;;0.40;0.40;;;21.40;76.10;;;21.70;63.12;95306.06;5002943;28;20238;-78
2022/07/22 03:48:00;;;;;;;0.40;0.40;;;21.40;76.00;;;21.67;63.43;95306.59;4996872;28;20686;-79
2022/07/22 03:50:33;;;;;;;0.30;0.30;;;21.40;76.00;;;21.62;63.32;95302.00;4997056;28;20276;-79
2022/07/22 03:53:00;;;;;;;0.30;0.30;;;21.40;77.00;;;21.65;63.40;95311.34;5012482;28;20520;-79
2022/07/22 03:55:28;;;;;;;0.40;0.40;;;21.40;76.20;;;21.67;63.48;95311.91;4987839;28;20315;-79
2022/07/22 03:57:57;;;;;;;0.40;0.40;;;21.40;76.30;;;21.65;63.39;95309.47;5014309;28;20212;-77
2022/07/22 04:00:28;;;;;;;0.30;0.30;;;21.40;76.30;;;21.65;63.46;95312.16;5011456;28;20700;-78
2022/07/22 04:02:57;;;;;;;0.35;0.35;;;21.40;76.40;;;21.69;63.47;95318.63;4995441;28;20222;-80
2022/07/22 04:05:45;;;;;;;0.40;0.40;;;21.40;76.30;;;21.72;62.97;95314.63;4987665;28;20676;-78
2022/07/22 04:08:17;;;;;;;0.38;0.38;;;21.40;76.20;;;21.68;63.43;95311.66;5000864;28;20633;-80
2022/07/22 04:10:45;;;;;;;0.40;0.40;;;21.40;76.20;;;21.75;62.81;95319.44;5012577;28;20221;-80
2022/07/22 04:13:13;;;;;;;0.30;0.30;;;21.40;76.30;;;21.75;63.32;95325.63;4981696;28;20284;-79
2022/07/22 04:15:51;;;;;;;0.30;0.30;;;21.40;76.40;;;21.79;63.40;95327.75;4986870;28;20221;-78
2022/07/22 04:18:19;;;;;;;0.30;0.30;;;21.50;76.50;;;21.75;62.93;95320.28;5009504;28;20200;-80
2022/07/22 04:20:46;;;;;;;0.30;0.30;;;21.50;76.40;;;21.82;63.65;95324.59;4983521;28;20222;-80
2022/07/22 04:23:32;;;;;;;0.40;0.40;;;21.50;76.60;;;21.84;63.35;95323.28;5006998;28;20230;-79
2022/07/22 04:26:20;;;;;;;0.40;0.40;;;21.60;76.60;;;21.85;63.49;95324.91;5018281;28;20234;-79
2022/07/22 04:28:48;;;;;;;0.40;0.40;;;21.60;77.50;;;21.89;63.59;95320.66;4981287;28;20201;-80
2022/07/22 04:31:15;;;;;;;0.35;0.35;;;21.60;76.60;;;21.93;63.51;95322.84;5007074;28;20274;-79
2022/07/22 04:33:42;;;;;;;0.35;0.35;;;21.70;76.70;;;21.96;63.58;95322.31;5013043;28;20288;-80
2022/07/22 04:36:10;;;;;;;0.30;0.30;;;21.70;76.60;;;21.98;63.39;95321.00;5016339;28;20231;-79
2022/07/22 04:38:37;;;;;;;0.40;0.40;;;21.70;76.50;;;22.04;63.20;95319.97;5015497;28;20204;-80
2022/07/22 04:41:08;;;;;;;0.40;0.40;;;21.80;76.50;;;22.11;63.00;95327.00;5017340;28;20256;-80
2022/07/22 04:43:36;;;;;;;0.30;0.30;;;21.80;76.40;;;22.14;63.25;95321.13;5007821;28;20315;-80
2022/07/22 04:46:06;;;;;;;0.43;0.43;;;21.90;76.40;;;22.20;63.29;95312.09;5033419;28;20628;-80
2022/07/22 04:48:36;;;;;;;0.40;0.40;;;21.90;76.30;;;22.27;63.13;95314.56;5017705;28;20695;-81
2022/07/22 04:51:04;;;;;;;0.40;0.40;;;21.90;76.20;;;22.33;62.57;95317.00;4997874;28;20229;-81
2022/07/22 04:53:33;;;;;;;0.40;0.40;;;22.00;76.30;;;22.39;62.73;95318.69;5009817;28;20278;-81
2022/07/22 04:56:16;;;;;;;0.40;0.40;;;22.10;76.30;;;22.44;62.99;95320.59;4998753;28;20323;-80
2022/07/22 04:58:45;;;;;;;0.30;0.30;;;22.10;76.20;;;22.50;63.01;95322.22;4993747;28;20203;-81
2022/07/22 05:01:12;;;;;;;0.30;0.30;;;22.20;76.20;;;22.54;62.62;95320.69;5012926;28;20275;-79
2022/07/22 05:03:41;;;;;;;0.47;0.47;;;22.30;76.30;;;22.55;62.63;95316.13;5024029;28;20234;-78
2022/07/22 05:06:09;;;;;;;0.40;0.40;;;22.30;76.00;;;22.63;62.51;95323.66;5000123;28;20224;-80
2022/07/22 05:08:40;;;;;;;0.40;0.40;;;22.40;76.00;;;22.69;62.27;95333.31;5016536;28;20298;-80
2022/07/22 05:11:07;;;;;;;0.40;0.40;;;22.40;75.90;;;22.75;62.19;95328.00;4994497;28;20219;-80
2022/07/22 05:13:35;;;;;;;0.30;0.30;;;22.50;75.90;;;22.78;62.62;95322.16;5003695;28;20220;-81
2022/07/22 05:16:07;;;;;;;0.50;0.50;;;22.60;75.90;;;22.81;62.71;95327.78;5016017;28;20219;-80
2022/07/22 05:18:36;;;;;;;0.40;0.40;;;22.60;75.80;;;22.91;61.82;95334.25;4978616;28;20205;-80
2022/07/22 05:21:06;;;;;;;0.30;0.30;;;22.60;75.70;;;22.97;62.18;95331.34;5010712;28;20231;-79
2022/07/22 05:23:34;;;;;;;0.30;0.30;;;22.70;75.70;;;23.03;61.98;95329.47;5029239;28;20208;-80
2022/07/22 05:26:01;;;;;;;0.30;0.30;;;22.70;75.70;;;23.11;62.12;95336.22;5030130;28;20207;-80
2022/07/22 05:28:28;;;;;;;0.40;0.40;;;22.80;75.80;;;23.21;61.79;95338.16;5012093;28;20573;-79
2022/07/22 05:30:56;;;;;;;0.30;0.30;;;22.80;75.80;;;23.28;61.82;95334.16;4999774;28;20222;-79
2022/07/22 05:33:27;;;;;;;0.30;0.30;;;22.90;75.60;;;23.38;61.11;95336.06;4998184;28;20579;-80
2022/07/22 05:36:22;;;;;;;0.50;0.50;;;23.00;75.50;;;23.49;61.61;95334.25;5018697;28;20619;-80
2022/07/22 05:38:51;;;;;;;0.30;0.30;;;23.10;75.40;;;23.61;61.32;95334.81;5011283;28;20464;-79
2022/07/22 05:41:18;;;;;;;0.30;0.30;;;23.20;75.50;;;23.72;61.03;95335.63;5024926;28;20727;-78
2022/07/22 05:43:45;;;;;;;0.30;0.30;;;23.30;75.10;;;23.75;60.44;95328.94;5015514;28;20260;-79
2022/07/22 05:46:12;;;;;;;0.43;0.43;;;23.40;74.90;;;23.77;60.53;95334.84;5029838;28;20308;-80
2022/07/22 05:48:41;;;;;;;0.30;0.30;;;23.40;74.60;;;23.79;60.26;95333.50;5011285;28;20280;-80
2022/07/22 05:51:13;;;;;;;0.30;0.30;;;23.50;74.40;;;23.79;60.08;95336.19;5006195;28;20227;-80
2022/07/22 05:53:42;;;;;;;0.30;0.30;;;23.50;74.30;;;23.81;59.88;95335.91;5011197;28;20212;-80
2022/07/22 05:56:11;;;;;;;0.40;0.40;;;23.50;74.20;;;23.79;59.89;95338.03;5015010;28;20227;-79
2022/07/22 05:58:40;;;;;;;0.30;0.30;;;23.50;74.20;;;23.76;59.95;95336.72;5006165;28;20664;-80
2022/07/22 06:01:10;;;;;;;0.40;0.40;;;23.50;74.20;;;23.76;60.09;95328.66;4985252;28;20674;-79
2022/07/22 06:03:38;;;;;;;0.30;0.30;;;23.50;74.20;;;23.81;59.95;95341.28;5008074;28;20227;-80
2022/07/22 06:06:08;;;;;;;0.40;0.40;;;23.50;74.30;;;23.83;59.88;95336.47;4997959;28;20317;-79
2022/07/22 06:08:37;;;;;;;0.30;0.30;;;23.50;74.30;;;23.85;60.16;95334.31;5015435;28;20605;-79
2022/07/22 06:11:04;;;;;;;0.30;0.30;;;23.60;74.50;;;23.92;60.04;95334.88;5014819;28;20704;-80
2022/07/22 06:13:33;;;;;;;0.30;0.30;;;23.60;74.40;;;24.01;59.94;95337.03;5031306;28;20203;-80
2022/07/22 06:16:01;;;;;;;0.40;0.40;;;23.60;74.20;;;24.08;59.92;95332.22;5015141;28;20228;-80
2022/07/22 06:18:30;;;;;;;0.30;0.30;;;23.70;74.30;;;24.15;60.01;95332.78;5015278;28;20651;-80
2022/07/22 06:20:58;;;;;;;0.40;0.40;;;23.80;74.20;;;24.21;59.75;95330.91;5014735;28;20223;-78
2022/07/22 06:23:27;;;;;;;0.30;0.30;;;23.80;74.10;;;24.34;59.34;95341.09;5031548;28;20724;-80
2022/07/22 06:25:55;;;;;;;0.30;0.30;;;23.90;73.90;;;24.43;59.27;95346.72;5014938;28;20705;-79
2022/07/22 06:28:31;;;;;;;0.30;0.30;;;24.00;73.70;;;24.48;59.34;95349.38;5012570;28;20243;-80
2022/07/22 06:30:59;;;;;;;0.40;0.40;;;24.10;73.50;;;24.51;58.81;95337.31;4998630;28;20216;-79
2022/07/22 06:33:27;;;;;;;0.60;0.60;;;24.20;73.40;;;24.55;58.75;95338.41;5010412;28;20212;-79
2022/07/22 06:35:56;;;;;;;0.40;0.40;;;24.20;73.20;;;24.65;58.54;95345.63;5031117;28;20216;-80
2022/07/22 06:38:25;;;;;;;0.50;0.50;;;24.30;73.20;;;24.73;59.20;95347.75;5031604;28;20226;-80
2022/07/22 06:41:25;;;;;;;0.50;0.50;;;24.40;73.50;;;24.82;58.73;95348.03;5019080;28;20242;-80
2022/07/22 06:44:05;;;;;;;0.30;0.30;;;24.50;73.20;;;24.90;58.55;95348.28;5031488;28;20223;-80
2022/07/22 06:46:32;;;;;;;0.35;0.35;;;24.50;73.10;;;24.97;58.27;95341.81;5031136;28;20303;-79
2022/07/22 06:49:01;;;;;;;0.30;0.30;;;24.60;72.90;;;25.08;58.55;95338.84;5017631;28;20704;-79
2022/07/22 06:51:33;;;;;;;0.20;0.20;;;24.70;73.10;;;25.18;58.71;95340.69;5006017;28;20215;-80
2022/07/22 06:54:01;;;;;;;0.40;0.40;;;24.80;73.30;;;25.29;58.64;95329.91;5020799;28;20208;-79
2022/07/22 06:56:28;;;;;;;0.20;0.20;;;24.90;73.20;;;25.44;58.12;95340.63;5032085;28;20239;-79
2022/07/22 06:58:55;;;;;;;0.30;0.30;;;25.00;72.70;;;25.55;57.97;95334.09;4999104;28;20588;-78
2022/07/22 07:01:23;;;;;;;0.30;0.30;;;25.20;72.70;;;25.69;57.83;95333.50;4997722;28;20294;-78
2022/07/22 07:03:55;;;;;;;0.40;0.40;;;25.30;72.50;;;25.81;57.60;95325.09;5000918;28;20225;-78
2022/07/22 07:06:23;;;;;;;0.30;0.30;;;25.40;72.30;;;25.93;57.34;95333.63;5016712;28;20270;-78
2022/07/22 07:09:03;;;;;;;0.30;0.30;;;25.50;71.90;;;26.03;55.81;95336.22;5017063;28;20353;-77
2022/07/22 07:11:32;;;;;;;0.30;0.30;;;25.60;70.80;;;26.12;56.32;95332.97;4984475;28;20226;-78
2022/07/22 07:14:01;;;;;;;0.30;0.30;;;25.70;70.70;;;26.19;56.05;95326.19;5032397;28;20223;-78
2022/07/22 07:16:29;;;;;;;0.30;0.30;;;25.80;71.00;;;26.25;55.98;95326.94;5001207;28;20261;-78
2022/07/22 07:18:59;;;;;;;0.30;0.30;;;25.90;70.30;;;26.32;56.07;95316.66;5000747;28;20197;-78
2022/07/22 07:21:28;;;;;;;0.40;0.40;;;26.00;70.50;;;26.38;55.50;95317.44;5031536;28;20308;-78
2022/07/22 07:23:55;;;;;;;0.30;0.30;;;26.00;70.00;;;26.44;55.59;95316.31;5031535;28;20296;-79
2022/07/22 07:26:24;;;;;;;0.30;0.30;;;26.10;70.10;;;26.56;55.51;95323.19;5000909;28;20266;-78
2022/07/22 07:28:51;;;;;;;0.30;0.30;;;26.10;70.00;;;26.65;54.96;95324.19;5021577;28;20739;-78
2022/07/22 07:31:32;;;;;;;0.30;0.30;;;26.20;69.60;;;26.74;54.68;95318.97;5016838;28;20245;-78
2022/07/22 07:34:09;;;;;;;0.30;0.30;;;26.30;69.60;;;26.87;55.17;95318.34;4998931;28;20213;-79
2022/07/22 07:36:36;;;;;;;0.20;0.20;;;26.40;69.40;;;26.98;54.60;95319.03;5006769;28;20710;-78
2022/07/22 07:39:04;;;;;;;0.30;0.30;;;26.50;69.10;;;27.13;53.86;95315.34;4997048;28;20191;-79
2022/07/22 07:41:31;;;;;;;0.32;0.32;;;26.70;68.80;;;27.24;53.99;95313.34;5005110;28;20246;-77
2022/07/22 07:43:59;;;;;;;0.30;0.30;;;26.80;68.40;;;27.34;53.98;95315.91;5012548;28;20260;-77
2022/07/22 07:46:27;;;;;;;0.30;0.30;;;26.90;68.60;;;27.45;53.79;95319.28;5013295;28;20720;-78
2022/07/22 07:48:57;;;;;;;0.20;0.20;;;27.00;68.60;;;27.51;53.10;95312.75;5018549;28;20209;-78
2022/07/22 07:51:25;;;;;;;0.22;0.22;;;27.10;68.20;;;27.56;52.27;95304.63;5015991;28;20693;-78
2022/07/22 07:53:52;;;;;;;0.30;0.30;;;27.30;67.40;;;27.65;52.36;95304.75;5030118;28;20197;-78
2022/07/22 07:56:22;;;;;;;0.30;0.30;;;27.30;66.90;;;27.72;52.25;95310.59;5006738;28;20223;-78
2022/07/22 07:58:49;;;;;;;0.30;0.30;;;27.40;66.60;;;27.79;51.83;95311.03;4999779;28;20198;-78
2022/07/22 08:01:37;;;;;;;0.30;0.30;;;27.40;66.80;;;27.88;52.20;95300.38;5008120;28;20216;-78
2022/07/22 08:04:25;;;;;;;0.20;0.20;;;27.50;66.90;;;27.94;51.57;95299.22;4993648;28;20217;-78
2022/07/22 08:07:08;;;;;;;0.30;0.30;;;27.60;66.40;;;28.07;50.76;95304.97;5009410;28;20287;-78
2022/07/22 08:09:38;;;;;;;0.40;0.40;;;27.80;66.00;;;28.13;50.04;95311.88;5007563;28;20203;-77
2022/07/22 08:12:13;;;;;;;0.30;0.30;;;27.80;65.10;;;28.16;49.90;95305.09;5004953;28;20221;-79
2022/07/22 08:14:59;;;;;;;0.30;0.30;;;27.90;65.00;;;28.17;49.79;95301.31;5023050;28;20268;-79
2022/07/22 08:17:46;;;;;;;0.20;0.20;;;27.90;64.70;;;28.14;50.06;95296.50;5007804;28;20205;-79
2022/07/22 08:20:13;;;;;;;0.30;0.30;;;27.90;64.20;;;28.18;48.95;95306.41;4998143;28;20283;-79
2022/07/22 08:22:47;;;;;;;0.30;0.30;;;27.90;63.60;;;28.19;48.79;95304.53;5022906;28;20367;-79
2022/07/22 08:25:15;;;;;;;0.30;0.30;;;27.90;64.00;;;28.20;49.46;95309.63;5022130;28;20673;-76
2022/07/22 08:27:43;;;;;;;0.40;0.40;;;27.90;64.40;;;28.24;49.05;95307.13;5029432;28;20203;-77
2022/07/22 08:30:12;;;;;;;0.30;0.30;;;28.00;64.30;;;28.25;49.60;95303.34;5003973;28;20684;-78
2022/07/22 08:32:39;;;;;;;0.30;0.30;;;28.00;64.30;;;28.22;49.95;95304.72;5011251;28;20551;-78
2022/07/22 08:35:09;;;;;;;0.30;0.30;;;28.00;64.80;;;28.27;49.72;95309.22;5029698;28;20187;-77
2022/07/22 08:37:37;;;;;;;0.30;0.30;;;28.00;64.00;;;28.30;48.99;95311.34;4998896;28;20223;-78
2022/07/22 08:40:08;;;;;;;0.30;0.30;;;28.00;64.10;;;28.32;49.20;95311.84;5023761;28;20195;-78
2022/07/22 08:42:41;;;;;;;0.30;0.30;;;28.00;63.70;;;28.36;48.73;95307.47;5020521;28;20796;-78
2022/07/22 08:45:09;;;;;;;0.30;0.30;;;28.00;64.20;;;28.37;48.20;95309.06;5011783;28;20194;-78
2022/07/22 08:47:47;;;;;;;0.20;0.20;;;28.10;63.90;;;28.41;49.00;95303.88;5013427;28;20210;-78
2022/07/22 08:50:35;;;;;;;0.30;0.30;;;28.10;63.50;;;28.44;48.31;95312.19;5019063;28;20644;-78
2022/07/22 08:53:12;;;;;;;0.30;0.30;;;28.10;63.20;;;28.50;48.83;95293.19;5021766;28;20681;-79
2022/07/22 08:55:47;;;;;;;0.30;0.30;;;28.20;63.40;;;28.60;48.22;95301.13;4996883;28;20702;-78
2022/07/22 08:58:17;;;;;;;0.30;0.30;;;28.20;63.70;;;28.69;48.28;95299.34;5005997;28;20201;-78
2022/07/22 09:00:44;;;;;;;0.30;0.30;;;28.30;63.40;;;28.77;48.45;95302.47;4994846;28;20217;-79
2022/07/22 09:03:27;;;;;;;0.20;0.20;;;28.40;63.10;;;28.81;48.29;95290.78;4995370;28;20231;-78
2022/07/22 09:06:00;;;;;;;0.20;0.20;;;28.50;63.00;;;28.88;47.17;95299.28;4999532;28;20245;-78
2022/07/22 09:08:27;;;;;;;0.22;0.22;;;28.50;62.50;;;28.91;47.17;95298.66;5032640;28;20207;-79
2022/07/22 09:11:25;;;;;;;0.30;0.30;;;28.60;62.10;;;28.93;46.70;95306.50;5039070;28;20229;-79
2022/07/22 09:14:15;;;;;;;0.40;0.40;;;28.60;61.60;;;28.94;46.94;95297.25;5013790;28;20203;-78
2022/07/22 09:16:52;;;;;;;0.30;0.30;;;28.60;62.20;;;28.96;46.58;95297.78;4983990;28;20221;-77
2022/07/22 09:19:34;;;;;;;0.30;0.30;;;28.70;61.90;;;29.04;46.16;95297.09;5012770;28;20197;-78
2022/07/22 09:22:44;;;;;;;0.30;0.30;;;28.70;61.50;;;29.04;46.45;95299.78;5032773;28;20229;-78
2022/07/22 09:25:23;;;;;;;0.30;0.30;;;28.80;61.60;;;29.08;45.55;95302.69;5000477;28;20218;-78
2022/07/22 09:28:14;;;;;;;0.30;0.30;;;28.80;61.10;;;29.09;45.92;95298.88;5018745;28;20293;-78
2022/07/22 09:31:01;;;;;;;0.30;0.30;;;28.80;61.00;;;29.12;46.03;95289.38;5015866;28;20237;-79
2022/07/22 09:33:34;;;;;;;0.30;0.30;;;28.80;61.10;;;29.17;45.88;95289.28;5011561;28;20300;-78
2022/07/22 09:36:28;;;;;;;0.30;0.30;;;28.80;61.10;;;29.18;46.03;95286.25;5028607;28;20692;-78
2022/07/22 09:38:57;;;;;;;0.30;0.30;;;28.90;61.10;;;29.24;45.43;95284.25;4980174;28;20205;-78
2022/07/22 09:41:25;;;;;;;0.30;0.30;;;28.90;60.90;;;29.30;45.73;95287.69;5027245;28;20230;-78
2022/07/22 09:43:52;;;;;;;0.20;0.20;;;28.90;60.40;;;29.34;45.48;95285.97;5029741;28;20223;-78
2022/07/22 09:46:37;;;;;;;0.25;0.25;;;29.00;60.50;;;29.43;44.74;95288.75;5015896;28;20221;-78
2022/07/22 09:49:42;;;;;;;0.30;0.30;;;29.00;60.40;;;29.49;44.94;95282.13;5049416;28;20263;-78
2022/07/22 09:52:27;;;;;;;0.30;0.30;;;29.10;60.00;;;29.56;44.51;95274.41;5055485;28;20725;-79
2022/07/22 09:55:06;;;;;;;0.20;0.20;;;29.20;59.10;;;29.69;43.42;95276.28;5022894;28;20199;-78
2022/07/22 09:57:36;;;;;;;0.30;0.30;;;29.30;58.80;;;29.80;43.11;95279.56;5014833;28;20616;-78
2022/07/22 10:00:09;;;;;;;0.20;0.20;;;29.40;58.40;;;29.90;42.56;95262.31;5030919;28;20202;-79
2022/07/22 10:02:58;;;;;;;0.30;0.30;;;29.40;58.00;;;30.01;42.56;95271.78;4997954;28;20203;-79
2022/07/22 10:05:38;;;;;;;0.30;0.30;;;29.60;57.60;;;30.15;42.61;95268.22;4995758;28;20311;-78
2022/07/22 10:08:08;;;;;;;0.22;0.22;;;29.70;57.50;;;30.28;41.95;95255.72;4995940;28;20286;-78
2022/07/22 10:10:38;;;;;;;0.20;0.20;;;29.80;56.70;;;30.39;41.30;95254.34;4995664;28;20224;-78
2022/07/22 10:13:08;;;;;;;0.30;0.30;;;29.90;56.50;;;30.46;41.80;95246.56;5012352;28;20212;-79
2022/07/22 10:15:37;;;;;;;0.30;0.30;;;30.00;56.20;;;30.59;41.98;95260.34;5028020;28;20211;-78
2022/07/22 10:18:13;;;;;;;0.30;0.30;;;30.10;56.80;;;30.69;40.78;95248.44;5018352;28;20196;-78
2022/07/22 10:20:42;;;;;;;0.30;0.30;;;30.30;55.90;;;30.77;41.07;95247.69;4998080;28;20231;-78
2022/07/22 10:23:13;;;;;;;0.30;0.30;;;30.30;56.10;;;30.87;40.33;95254.72;5014817;28;20200;-78
2022/07/22 10:25:56;;;;;;;0.30;0.30;;;30.40;55.20;;;31.00;40.47;95255.75;5031162;28;20366;-78
2022/07/22 10:28:28;;;;;;;0.30;0.30;;;30.50;54.90;;;31.09;39.42;95256.56;5009624;28;20234;-78
2022/07/22 10:31:17;;;;;;;0.20;0.20;;;30.70;54.20;;;31.21;39.08;95247.84;5013092;28;20225;-78
2022/07/22 10:33:53;;;;;;;0.25;0.25;;;30.80;53.00;;;31.35;38.92;95250.41;5026477;28;20214;-78
2022/07/22 10:36:42;;;;;;;0.30;0.30;;;30.80;53.50;;;31.44;38.83;95243.91;4994506;28;20244;-78